Time;durP1;ratioP1;P1;durP2;ratioP2;P2;SDS_P1;SDS_P2;PMS_P1;PMS_P2;Temp;Humidity;BMP_temperature;BMP_pressure;BME280_temperature;BME280_humidity;BME280_pressure;Samples;Min_cycle;Max_cycle;Signal;HPM_P1;HPM_P2
2021/07/17 00:00:14;;;;;;;18.73;11.48;;;27.40;66.70;;;;;;6171840;28;83109;-67
2021/07/17 00:03:16;;;;;;;17.05;10.80;;;27.30;66.70;;;;;;6174093;28;84122;-67
2021/07/17 00:06:16;;;;;;;22.45;12.57;;;27.30;66.70;;;;;;6177753;28;82997;-67
2021/07/17 00:09:17;;;;;;;22.45;12.63;;;27.30;66.70;;;;;;6167339;28;85385;-67
2021/07/17 00:12:17;;;;;;;17.95;11.27;;;27.30;66.70;;;;;;6171295;28;83813;-67
2021/07/17 00:15:18;;;;;;;19.58;12.35;;;27.30;66.70;;;;;;6179477;28;83391;-67
2021/07/17 00:18:18;;;;;;;17.08;11.05;;;27.30;66.50;;;;;;6179557;28;83017;-67
2021/07/17 00:21:19;;;;;;;23.02;12.43;;;27.30;66.50;;;;;;6179486;28;90096;-67
2021/07/17 00:24:19;;;;;;;16.27;11.48;;;27.30;66.70;;;;;;6179525;28;83689;-67
2021/07/17 00:27:20;;;;;;;17.02;10.98;;;27.30;66.50;;;;;;6177076;28;83194;-65
2021/07/17 00:30:20;;;;;;;18.70;12.23;;;27.30;66.50;;;;;;6186194;28;85630;-65
2021/07/17 00:33:21;;;;;;;17.92;11.70;;;27.30;66.60;;;;;;6174995;28;82853;-65
2021/07/17 00:36:21;;;;;;;15.88;12.07;;;27.20;66.70;;;;;;6179720;28;82798;-66
2021/07/17 00:39:22;;;;;;;17.13;11.63;;;27.20;66.50;;;;;;6180423;28;83301;-66
2021/07/17 00:42:22;;;;;;;15.60;10.93;;;27.20;66.90;;;;;;6176647;28;83193;-66
2021/07/17 00:45:23;;;;;;;16.48;12.18;;;27.20;66.70;;;;;;6179438;28;83066;-66
2021/07/17 00:48:23;;;;;;;17.52;12.00;;;27.20;66.90;;;;;;6181050;28;83460;-65
2021/07/17 00:51:26;;;;;;;17.73;12.18;;;27.30;66.80;;;;;;6176793;28;85662;-65
2021/07/17 00:54:26;;;;;;;20.67;11.68;;;27.20;66.20;;;;;;6180445;28;82958;-66
2021/07/17 00:57:27;;;;;;;20.20;12.32;;;27.10;66.20;;;;;;6166939;28;83374;-66
2021/07/17 01:00:27;;;;;;;20.17;11.13;;;27.10;66.10;;;;;;6176381;28;83191;-67
2021/07/17 01:03:28;;;;;;;16.33;11.50;;;27.10;66.10;;;;;;6180253;28;83805;-67
2021/07/17 01:06:28;;;;;;;20.33;13.02;;;27.10;66.10;;;;;;6177479;28;84175;-67
2021/07/17 01:09:29;;;;;;;16.73;11.88;;;27.10;66.10;;;;;;6180405;28;83197;-67
2021/07/17 01:12:29;;;;;;;14.32;10.50;;;27.10;66.00;;;;;;6173883;28;83219;-67
2021/07/17 01:15:30;;;;;;;16.70;11.43;;;27.10;66.10;;;;;;6176837;28;83440;-67
2021/07/17 01:18:30;;;;;;;22.58;11.02;;;27.10;66.00;;;;;;6178712;28;83298;-66
2021/07/17 01:21:31;;;;;;;19.88;10.80;;;27.10;66.00;;;;;;6177204;28;83047;-67
2021/07/17 01:24:31;;;;;;;14.27;10.63;;;27.20;66.00;;;;;;6189576;28;84698;-66
2021/07/17 01:27:32;;;;;;;17.65;10.48;;;27.10;66.00;;;;;;6168149;28;83481;-66
2021/07/17 01:30:32;;;;;;;15.63;10.75;;;27.10;66.00;;;;;;6171208;28;82954;-66
2021/07/17 01:33:33;;;;;;;12.45;10.23;;;27.20;65.90;;;;;;6178135;28;82802;-66
2021/07/17 01:36:33;;;;;;;19.30;11.65;;;27.20;65.70;;;;;;6175237;28;82980;-67
2021/07/17 01:39:34;;;;;;;13.35;10.32;;;27.10;65.70;;;;;;6174277;28;84048;-66
2021/07/17 01:42:37;;;;;;;18.17;9.93;;;27.10;65.70;;;;;;6172442;28;84611;-66
2021/07/17 01:45:39;;;;;;;13.35;9.63;;;27.20;65.90;;;;;;6170411;28;82998;-66
2021/07/17 01:48:39;;;;;;;12.30;9.80;;;27.20;66.30;;;;;;6182079;28;80626;-66
2021/07/17 01:51:40;;;;;;;12.65;9.38;;;27.20;66.00;;;;;;6181721;28;80906;-66
2021/07/17 01:54:41;;;;;;;13.57;9.60;;;27.20;66.00;;;;;;6168344;28;82771;-66
2021/07/17 01:57:42;;;;;;;13.45;9.70;;;27.20;65.80;;;;;;6180927;28;80341;-66
2021/07/17 02:00:43;;;;;;;14.02;10.60;;;27.30;65.80;;;;;;6180857;28;81432;-66
2021/07/17 02:03:43;;;;;;;16.45;10.40;;;27.20;65.50;;;;;;6178214;28;82816;-67
2021/07/17 02:06:44;;;;;;;19.30;11.60;;;27.20;65.60;;;;;;6169854;28;86205;-67
2021/07/17 02:09:44;;;;;;;15.73;10.13;;;27.20;65.70;;;;;;6176334;28;83152;-66
2021/07/17 02:12:45;;;;;;;17.65;10.93;;;27.20;65.50;;;;;;6179149;28;83457;-66
2021/07/17 02:15:45;;;;;;;15.65;8.95;;;27.20;65.50;;;;;;6168823;28;83531;-66
2021/07/17 02:18:46;;;;;;;16.13;9.95;;;27.20;65.70;;;;;;6181724;28;82887;-66
2021/07/17 02:21:46;;;;;;;14.05;9.68;;;27.20;65.70;;;;;;6168437;28;80311;-65
2021/07/17 02:24:47;;;;;;;11.55;10.10;;;27.20;65.70;;;;;;6176285;28;82234;-66
2021/07/17 02:27:47;;;;;;;16.80;9.65;;;27.20;65.70;;;;;;6177654;28;83404;-66
2021/07/17 02:30:48;;;;;;;14.07;10.13;;;27.20;66.00;;;;;;6197637;28;86407;-65
2021/07/17 02:33:48;;;;;;;14.98;9.50;;;27.20;65.60;;;;;;6170546;28;83851;-66
2021/07/17 02:36:49;;;;;;;14.88;9.30;;;27.20;65.30;;;;;;6168325;28;91090;-65
2021/07/17 02:39:51;;;;;;;16.10;9.93;;;27.30;65.70;;;;;;6177777;28;85448;-67
2021/07/17 02:42:51;;;;;;;13.20;10.32;;;27.30;65.50;;;;;;6172430;28;80310;-66
2021/07/17 02:45:52;;;;;;;14.70;9.68;;;27.30;65.10;;;;;;6169357;28;83909;-66
2021/07/17 02:48:52;;;;;;;11.02;9.30;;;27.30;65.20;;;;;;6172953;28;82755;-67
2021/07/17 02:51:55;;;;;;;11.73;9.05;;;27.30;65.00;;;;;;6167353;28;80551;-66
2021/07/17 02:54:55;;;;;;;11.57;8.43;;;27.30;65.00;;;;;;6178715;28;83174;-67
2021/07/17 02:57:56;;;;;;;14.73;8.77;;;27.30;65.00;;;;;;6179603;28;80476;-67
2021/07/17 03:00:56;;;;;;;11.13;8.57;;;27.30;65.40;;;;;;6182314;28;80271;-66
2021/07/17 03:03:57;;;;;;;14.90;9.38;;;27.30;65.20;;;;;;6167449;28;80772;-67
2021/07/17 03:06:57;;;;;;;12.98;8.68;;;27.30;65.20;;;;;;6179829;28;80776;-67
2021/07/17 03:09:58;;;;;;;12.57;8.95;;;27.30;64.80;;;;;;6171484;28;83138;-66
2021/07/17 03:12:58;;;;;;;17.05;8.73;;;27.30;64.60;;;;;;6178290;28;81419;-66
2021/07/17 03:15:59;;;;;;;18.08;10.05;;;27.30;64.30;;;;;;6168045;28;80296;-67
2021/07/17 03:18:59;;;;;;;14.40;9.45;;;27.20;64.20;;;;;;6177679;28;83264;-66
2021/07/17 03:22:00;;;;;;;14.15;9.57;;;27.20;64.20;;;;;;6168192;28;82853;-66
2021/07/17 03:25:00;;;;;;;15.68;8.95;;;27.20;64.30;;;;;;6189213;28;82294;-66
2021/07/17 03:28:01;;;;;;;13.55;8.55;;;27.20;64.40;;;;;;6171565;28;81392;-66
2021/07/17 03:31:01;;;;;;;10.40;8.50;;;27.20;64.60;;;;;;6175094;28;82318;-65
2021/07/17 03:34:02;;;;;;;11.05;8.88;;;27.30;64.70;;;;;;6173355;28;80775;-65
2021/07/17 03:37:03;;;;;;;10.65;8.15;;;27.20;64.80;;;;;;6177440;28;83277;-66
2021/07/17 03:40:03;;;;;;;16.33;8.80;;;27.30;64.60;;;;;;6179049;28;80482;-66
2021/07/17 03:43:04;;;;;;;14.23;9.27;;;27.20;64.40;;;;;;6192591;28;81950;-67
2021/07/17 03:46:04;;;;;;;10.18;8.07;;;27.20;64.10;;;;;;6184863;28;81125;-67
2021/07/17 03:49:05;;;;;;;13.55;9.05;;;27.20;64.40;;;;;;6183808;28;80921;-67
2021/07/17 03:52:05;;;;;;;11.07;9.20;;;27.30;64.20;;;;;;6171874;28;80895;-69
2021/07/17 03:55:06;;;;;;;10.75;9.15;;;27.20;64.10;;;;;;6170318;28;80378;-68
2021/07/17 03:58:06;;;;;;;11.82;8.20;;;27.30;64.10;;;;;;6169672;28;81528;-67
2021/07/17 04:01:07;;;;;;;14.35;9.00;;;27.30;64.00;;;;;;6176326;28;83415;-67
2021/07/17 04:04:09;;;;;;;13.85;8.57;;;27.30;64.20;;;;;;6172841;28;80485;-69
2021/07/17 04:07:09;;;;;;;12.27;8.82;;;27.30;64.20;;;;;;6174034;28;80553;-68
2021/07/17 04:10:10;;;;;;;13.43;8.43;;;27.30;64.60;;;;;;6176936;28;81048;-68
2021/07/17 04:13:10;;;;;;;11.57;8.63;;;27.30;64.70;;;;;;6182657;28;81744;-68
2021/07/17 04:16:11;;;;;;;10.80;7.68;;;27.30;64.90;;;;;;6174685;28;80846;-68
2021/07/17 04:19:11;;;;;;;13.32;9.07;;;27.30;64.60;;;;;;6181730;28;80943;-68
2021/07/17 04:22:12;;;;;;;12.20;8.88;;;27.30;64.70;;;;;;6183065;28;80153;-68
2021/07/17 04:25:12;;;;;;;14.32;9.00;;;27.30;64.90;;;;;;6179509;28;81193;-67
2021/07/17 04:28:13;;;;;;;12.73;8.55;;;27.30;64.80;;;;;;6183880;28;80816;-66
2021/07/17 04:31:13;;;;;;;17.10;8.57;;;27.30;64.80;;;;;;6183017;28;80725;-68
2021/07/17 04:34:14;;;;;;;13.02;9.00;;;27.30;65.40;;;;;;6183323;28;80971;-68
2021/07/17 04:37:14;;;;;;;15.25;9.50;;;27.30;64.90;;;;;;6176136;28;82883;-66
2021/07/17 04:40:16;;;;;;;17.92;10.55;;;27.30;64.90;;;;;;6179844;28;81066;-68
2021/07/17 04:43:16;;;;;;;16.73;9.52;;;27.40;64.90;;;;;;6177239;28;83116;-69
2021/07/17 04:46:17;;;;;;;18.33;10.38;;;27.40;64.80;;;;;;6178936;28;83334;-67
2021/07/17 04:49:17;;;;;;;19.58;10.00;;;27.40;65.00;;;;;;6180385;28;82970;-68
2021/07/17 04:52:17;;;;;;;14.27;9.43;;;27.40;65.70;;;;;;6167937;28;83234;-68
2021/07/17 04:55:19;;;;;;;11.68;8.98;;;27.40;64.80;;;;;;6183226;28;80381;-68
2021/07/17 04:58:20;;;;;;;18.27;10.48;;;27.40;65.80;;;;;;6164898;28;81786;-67
2021/07/17 05:01:21;;;;;;;15.32;10.25;;;27.40;65.30;;;;;;6177088;28;83282;-68
2021/07/17 05:04:22;;;;;;;16.45;10.65;;;27.40;65.40;;;;;;6179841;28;83729;-67
2021/07/17 05:07:22;;;;;;;16.67;10.77;;;27.40;65.50;;;;;;6169459;28;84157;-67
2021/07/17 05:10:23;;;;;;;14.95;12.13;;;27.40;67.00;;;;;;6169124;28;84085;-67
2021/07/17 05:13:26;;;;;;;18.83;12.05;;;27.40;67.20;;;;;;6170951;28;83141;-67
2021/07/17 05:16:27;;;;;;;20.02;11.55;;;27.50;66.90;;;;;;6169182;28;85011;-66
2021/07/17 05:19:27;;;;;;;16.70;11.80;;;27.40;67.30;;;;;;6171211;28;82884;-66
2021/07/17 05:22:28;;;;;;;23.38;12.75;;;27.50;67.00;;;;;;6164152;28;84034;-66
2021/07/17 05:25:29;;;;;;;17.17;12.77;;;27.50;67.60;;;;;;6168796;28;85296;-67
2021/07/17 05:28:29;;;;;;;14.98;10.82;;;27.50;66.90;;;;;;6165771;28;84456;-66
2021/07/17 05:31:30;;;;;;;15.13;10.93;;;27.50;66.80;;;;;;6171318;28;85762;-67
2021/07/17 05:34:30;;;;;;;24.52;11.68;;;27.50;66.80;;;;;;6187040;28;83051;-65
2021/07/17 05:37:31;;;;;;;16.67;11.43;;;27.60;67.10;;;;;;6179407;28;82996;-67
2021/07/17 05:40:31;;;;;;;15.80;10.98;;;27.60;66.80;;;;;;6171809;28;83323;-65
2021/07/17 05:43:32;;;;;;;18.00;11.02;;;27.60;66.70;;;;;;6174044;28;83786;-67
2021/07/17 05:46:32;;;;;;;19.73;12.68;;;27.60;66.50;;;;;;6167583;28;82673;-67
2021/07/17 05:49:33;;;;;;;16.30;10.70;;;27.60;66.30;;;;;;6175983;28;85807;-66
2021/07/17 05:52:33;;;;;;;15.38;10.93;;;27.60;66.20;;;;;;6177277;28;83986;-67
2021/07/17 05:55:34;;;;;;;14.68;10.30;;;27.60;66.80;;;;;;6178367;28;88772;-67
2021/07/17 05:58:34;;;;;;;18.48;10.70;;;27.60;66.20;;;;;;6177619;28;83146;-67
2021/07/17 06:01:35;;;;;;;20.58;11.60;;;27.60;66.30;;;;;;6179183;28;84124;-66
2021/07/17 06:04:35;;;;;;;24.13;11.40;;;27.60;66.30;;;;;;6177864;28;83041;-65
2021/07/17 06:07:36;;;;;;;18.10;10.93;;;27.60;66.50;;;;;;6177094;28;86026;-67
2021/07/17 06:10:36;;;;;;;15.95;11.18;;;27.60;66.20;;;;;;6166134;28;85770;-66
2021/07/17 06:13:37;;;;;;;15.80;10.70;;;27.60;66.10;;;;;;6172010;28;83215;-67
2021/07/17 06:16:37;;;;;;;16.63;10.95;;;27.60;66.50;;;;;;6176389;28;83321;-66
2021/07/17 06:19:38;;;;;;;15.93;10.90;;;27.70;66.60;;;;;;6176658;28;83646;-68
2021/07/17 06:22:38;;;;;;;17.27;11.75;;;27.70;66.50;;;;;;6177811;28;84145;-67
2021/07/17 06:25:39;;;;;;;22.27;13.50;;;27.70;66.50;;;;;;6178812;28;91636;-68
2021/07/17 06:28:39;;;;;;;20.30;12.00;;;27.70;66.10;;;;;;6177642;28;83121;-68
2021/07/17 06:31:40;;;;;;;21.67;12.73;;;27.70;66.20;;;;;;6164196;28;83763;-67
2021/07/17 06:34:40;;;;;;;16.52;11.98;;;27.70;66.30;;;;;;6166457;28;83177;-69
2021/07/17 06:37:41;;;;;;;19.20;12.57;;;27.70;66.30;;;;;;6165691;28;86203;-71
2021/07/17 06:40:41;;;;;;;19.27;11.32;;;27.70;66.10;;;;;;6166724;28;82771;-68
2021/07/17 06:43:42;;;;;;;17.65;12.63;;;27.70;66.10;;;;;;6159597;28;83443;-68
2021/07/17 06:46:42;;;;;;;21.20;13.20;;;27.70;66.10;;;;;;6164522;28;82919;-68
2021/07/17 06:49:43;;;;;;;18.40;11.88;;;27.70;65.90;;;;;;6160717;28;83578;-66
2021/07/17 06:52:43;;;;;;;21.33;11.73;;;27.70;65.60;;;;;;6169596;28;82943;-65
2021/07/17 06:55:44;;;;;;;22.92;13.07;;;27.70;65.70;;;;;;6163496;28;90615;-65
2021/07/17 06:58:44;;;;;;;19.08;11.68;;;27.70;65.70;;;;;;6162125;28;83337;-65
2021/07/17 07:01:45;;;;;;;18.25;12.00;;;27.80;65.80;;;;;;6164085;28;83333;-63
2021/07/17 07:04:45;;;;;;;29.38;12.75;;;27.70;65.80;;;;;;6170641;28;84820;-66
2021/07/17 07:07:46;;;;;;;22.10;12.90;;;27.80;65.80;;;;;;6161303;28;83177;-65
2021/07/17 07:10:46;;;;;;;22.88;12.07;;;27.80;65.70;;;;;;6166614;28;82942;-65
2021/07/17 07:13:47;;;;;;;13.82;11.45;;;27.70;66.30;;;;;;6167158;28;83941;-65
2021/07/17 07:16:48;;;;;;;19.90;12.02;;;27.80;65.60;;;;;;6165918;28;84253;-67
2021/07/17 07:19:48;;;;;;;16.30;11.02;;;27.80;65.50;;;;;;6165526;28;83051;-66
2021/07/17 07:22:49;;;;;;;15.20;10.65;;;27.80;65.50;;;;;;6164121;28;84496;-66
2021/07/17 07:25:49;;;;;;;16.58;11.00;;;27.80;66.00;;;;;;6167409;28;83351;-66
2021/07/17 07:28:50;;;;;;;17.42;10.70;;;27.80;66.20;;;;;;6169968;28;83726;-65
2021/07/17 07:31:51;;;;;;;21.48;10.75;;;27.70;66.20;;;;;;6165485;28;82882;-68
2021/07/17 07:34:51;;;;;;;15.57;10.95;;;27.80;66.00;;;;;;6165027;28;83624;-66
2021/07/17 07:37:52;;;;;;;16.20;10.13;;;27.80;65.80;;;;;;6165225;28;83307;-67
2021/07/17 07:40:52;;;;;;;13.00;9.82;;;27.80;65.50;;;;;;6166065;28;82924;-65
2021/07/17 07:43:53;;;;;;;12.75;9.68;;;27.80;65.20;;;;;;6169002;28;83008;-67
2021/07/17 07:46:53;;;;;;;15.85;10.32;;;27.80;65.10;;;;;;6163195;28;80876;-70
2021/07/17 07:49:54;;;;;;;15.45;9.95;;;27.80;65.00;;;;;;6164047;28;89731;-67
2021/07/17 07:52:54;;;;;;;13.90;9.00;;;27.80;65.00;;;;;;6168731;28;82990;-67
2021/07/17 07:55:55;;;;;;;13.07;9.63;;;27.80;64.70;;;;;;6171815;28;80610;-66
2021/07/17 07:58:55;;;;;;;14.15;9.63;;;27.80;65.00;;;;;;6170358;28;80796;-67
2021/07/17 08:01:56;;;;;;;13.25;10.18;;;27.80;64.70;;;;;;6176879;28;80421;-67
2021/07/17 08:04:56;;;;;;;16.42;9.88;;;27.90;64.70;;;;;;6167178;28;82759;-67
2021/07/17 08:07:57;;;;;;;15.88;9.20;;;27.90;64.20;;;;;;6172516;28;81740;-66
2021/07/17 08:10:57;;;;;;;20.38;10.30;;;27.90;64.30;;;;;;6171535;28;80530;-66
2021/07/17 08:13:58;;;;;;;13.45;10.25;;;27.80;64.50;;;;;;6166961;28;83917;-67
2021/07/17 08:17:02;;;;;;;16.55;9.07;;;27.80;64.50;;;;;;6169448;28;83672;-66
2021/07/17 08:20:07;;;;;;;12.23;8.88;;;27.80;64.30;;;;;;6172844;28;82892;-66
2021/07/17 08:23:08;;;;;;;14.40;9.60;;;27.80;64.40;;;;;;6178304;28;80341;-66
2021/07/17 08:26:08;;;;;;;11.40;8.80;;;27.80;64.40;;;;;;6168918;28;80430;-67
2021/07/17 08:29:09;;;;;;;16.60;8.93;;;27.90;64.40;;;;;;6180494;28;80649;-67
2021/07/17 08:32:09;;;;;;;10.90;8.63;;;27.90;64.20;;;;;;6173846;28;81531;-67
2021/07/17 08:35:10;;;;;;;10.05;8.30;;;27.90;64.30;;;;;;6174422;28;80171;-67
2021/07/17 08:38:10;;;;;;;10.85;8.52;;;27.90;64.20;;;;;;6176292;28;80388;-67
2021/07/17 08:41:11;;;;;;;15.23;9.73;;;27.90;64.20;;;;;;6180138;28;80312;-66
2021/07/17 08:44:11;;;;;;;14.82;9.02;;;27.90;64.20;;;;;;6172780;28;80684;-67
2021/07/17 08:47:12;;;;;;;13.25;9.20;;;27.90;64.60;;;;;;6176626;28;80618;-67
2021/07/17 08:50:12;;;;;;;11.40;8.88;;;27.90;64.50;;;;;;6176036;28;80985;-67
2021/07/17 08:53:13;;;;;;;14.10;9.32;;;27.90;64.50;;;;;;6167530;28;80868;-67
2021/07/17 08:56:13;;;;;;;11.10;9.18;;;27.90;64.70;;;;;;6169709;28;80391;-67
2021/07/17 08:59:14;;;;;;;12.18;9.05;;;27.90;64.80;;;;;;6172916;28;80340;-66
2021/07/17 09:02:14;;;;;;;17.40;10.65;;;27.90;65.00;;;;;;6176649;28;80681;-67
2021/07/17 09:05:15;;;;;;;12.25;9.40;;;27.90;65.10;;;;;;6170012;28;83339;-67
2021/07/17 09:08:15;;;;;;;13.57;9.88;;;27.90;65.10;;;;;;6176202;28;82889;-67
2021/07/17 09:11:16;;;;;;;11.93;9.18;;;27.90;65.40;;;;;;6182583;28;80522;-67
2021/07/17 09:14:16;;;;;;;12.90;9.52;;;28.00;65.30;;;;;;6181637;28;81640;-64
2021/07/17 09:17:17;;;;;;;14.65;9.20;;;27.90;65.00;;;;;;6172641;28;80572;-66
2021/07/17 09:20:17;;;;;;;14.40;9.38;;;28.00;64.80;;;;;;6179935;28;80421;-65
2021/07/17 09:23:18;;;;;;;13.68;9.75;;;28.00;64.50;;;;;;6183544;28;80953;-66
2021/07/17 09:26:18;;;;;;;14.15;9.18;;;28.00;64.50;;;;;;6180576;28;80334;-69
2021/07/17 09:29:19;;;;;;;16.73;9.63;;;28.00;64.50;;;;;;6181599;28;80821;-67
2021/07/17 09:32:19;;;;;;;15.48;9.93;;;28.00;64.50;;;;;;6183488;28;80244;-66
2021/07/17 09:35:22;;;;;;;14.60;9.23;;;28.00;64.50;;;;;;6182310;28;80993;-66
2021/07/17 09:38:23;;;;;;;14.40;9.10;;;28.00;64.40;;;;;;6175258;28;81671;-66
2021/07/17 09:41:23;;;;;;;15.93;9.60;;;28.00;64.40;;;;;;6175609;28;80357;-68
2021/07/17 09:44:24;;;;;;;14.27;9.82;;;28.00;64.50;;;;;;6180088;28;80753;-68
2021/07/17 09:47:25;;;;;;;17.67;10.55;;;28.00;64.90;;;;;;6176754;28;80667;-67
2021/07/17 09:50:26;;;;;;;12.68;10.27;;;28.00;65.40;;;;;;6172162;28;83233;-66
2021/07/17 09:53:26;;;;;;;17.02;10.10;;;28.00;65.40;;;;;;6177502;28;83656;-66
2021/07/17 09:56:27;;;;;;;17.65;10.88;;;27.90;65.40;;;;;;6169932;28;83424;-66
2021/07/17 09:59:28;;;;;;;22.17;10.35;;;28.00;66.40;;;;;;6172226;28;83436;-66
2021/07/17 10:02:28;;;;;;;14.82;10.45;;;27.90;66.00;;;;;;6178280;28;82974;-66
2021/07/17 10:05:29;;;;;;;19.67;11.20;;;28.00;66.50;;;;;;6177701;28;87359;-67
2021/07/17 10:08:29;;;;;;;17.55;11.52;;;28.00;67.10;;;;;;6189098;28;84522;-69
2021/07/17 10:11:30;;;;;;;27.20;12.02;;;28.00;67.00;;;;;;6168634;28;83215;-68
2021/07/17 10:14:32;;;;;;;24.35;12.75;;;28.00;67.40;;;;;;6178760;28;82803;-67
2021/07/17 10:17:33;;;;;;;28.27;12.65;;;28.00;68.10;;;;;;6176738;28;83227;-66
2021/07/17 10:20:33;;;;;;;27.55;13.23;;;28.00;67.80;;;;;;6161477;28;84117;-67
2021/07/17 10:23:34;;;;;;;20.52;10.55;;;28.10;67.90;;;;;;6166532;28;84061;-67
2021/07/17 10:26:34;;;;;;;16.63;10.57;;;28.10;67.80;;;;;;6165688;28;83241;-67
2021/07/17 10:29:35;;;;;;;15.00;10.32;;;28.10;67.70;;;;;;6171975;28;83372;-67
2021/07/17 10:32:35;;;;;;;20.80;10.75;;;28.10;67.50;;;;;;6171034;28;83000;-67
2021/07/17 10:35:36;;;;;;;14.55;9.88;;;28.10;67.60;;;;;;6174141;28;83811;-67
2021/07/17 10:38:36;;;;;;;15.80;10.13;;;28.10;67.40;;;;;;6172733;28;83998;-66
2021/07/17 10:41:37;;;;;;;22.45;10.23;;;28.10;67.30;;;;;;6172927;28;84630;-68
2021/07/17 10:44:37;;;;;;;11.63;9.60;;;28.10;67.20;;;;;;6170666;28;83002;-67
2021/07/17 10:47:38;;;;;;;16.42;10.00;;;28.10;66.90;;;;;;6173733;28;83326;-67
2021/07/17 10:50:38;;;;;;;19.98;10.50;;;28.10;66.70;;;;;;6177649;28;82796;-66
2021/07/17 10:53:39;;;;;;;14.13;10.25;;;28.10;66.70;;;;;;6177240;28;84575;-66
2021/07/17 10:56:39;;;;;;;13.30;9.88;;;28.10;66.20;;;;;;6169859;28;83175;-68
2021/07/17 10:59:40;;;;;;;18.50;10.48;;;28.10;65.70;;;;;;6181334;28;83947;-67
2021/07/17 11:02:40;;;;;;;13.57;10.00;;;28.10;65.60;;;;;;6160734;28;82830;-66
2021/07/17 11:05:41;;;;;;;13.35;9.55;;;28.20;65.30;;;;;;6192970;28;84719;-66
2021/07/17 11:08:41;;;;;;;11.52;9.15;;;28.20;65.20;;;;;;6168846;28;81575;-67
2021/07/17 11:11:42;;;;;;;15.35;9.70;;;28.20;64.90;;;;;;6163024;28;80803;-65
2021/07/17 11:14:43;;;;;;;15.40;9.15;;;28.20;65.00;;;;;;6165777;28;80325;-68
2021/07/17 11:17:43;;;;;;;13.57;9.60;;;28.20;64.50;;;;;;6167983;28;80868;-65
2021/07/17 11:20:44;;;;;;;16.67;9.48;;;28.20;64.40;;;;;;6161675;28;80526;-66
2021/07/17 11:23:44;;;;;;;19.15;11.25;;;28.20;64.40;;;;;;6167225;28;80583;-66
2021/07/17 11:26:45;;;;;;;17.38;11.60;;;28.20;64.20;;;;;;6156213;28;83533;-66
2021/07/17 11:29:45;;;;;;;17.75;11.00;;;28.20;63.60;;;;;;6157729;28;83176;-66
2021/07/17 11:32:46;;;;;;;17.48;10.95;;;28.20;63.00;;;;;;6157652;28;84364;-65
2021/07/17 11:35:48;;;;;;;16.45;10.77;;;28.20;62.90;;;;;;6165780;28;84034;-65
2021/07/17 11:38:48;;;;;;;14.18;10.40;;;28.20;62.80;;;;;;6160666;28;84156;-66
2021/07/17 11:41:49;;;;;;;16.85;9.30;;;28.20;62.40;;;;;;6160780;28;83173;-65
2021/07/17 11:44:49;;;;;;;12.90;9.90;;;28.20;62.10;;;;;;6163700;28;83052;-65
2021/07/17 11:47:50;;;;;;;12.77;9.43;;;28.10;61.80;;;;;;6169018;28;80768;-64
2021/07/17 11:50:50;;;;;;;13.68;10.00;;;28.20;61.80;;;;;;6164550;28;81762;-65
2021/07/17 11:53:51;;;;;;;18.20;11.50;;;28.20;61.70;;;;;;6161861;28;83159;-66
2021/07/17 11:56:51;;;;;;;15.70;10.30;;;28.10;62.10;;;;;;6161814;28;83389;-66
2021/07/17 11:59:52;;;;;;;14.63;9.80;;;28.10;62.10;;;;;;6158502;28;83100;-65
2021/07/17 12:02:53;;;;;;;15.32;10.98;;;28.20;62.30;;;;;;6166375;28;82830;-65
2021/07/17 12:05:53;;;;;;;14.93;11.60;;;28.20;62.50;;;;;;6164407;28;83215;-66
2021/07/17 12:08:54;;;;;;;17.35;11.40;;;28.20;62.60;;;;;;6161032;28;83102;-66
2021/07/17 12:11:54;;;;;;;13.52;10.20;;;28.20;62.50;;;;;;6162195;28;84232;-65
2021/07/17 12:14:55;;;;;;;19.58;11.63;;;28.20;62.50;;;;;;6167596;28;83482;-65
2021/07/17 12:17:55;;;;;;;17.58;10.98;;;28.20;62.70;;;;;;6164683;28;83370;-66
2021/07/17 12:20:56;;;;;;;14.38;10.93;;;28.20;62.80;;;;;;6165143;28;84004;-67
2021/07/17 12:23:59;;;;;;;19.67;11.93;;;28.20;63.30;;;;;;6166729;28;83061;-66
2021/07/17 12:27:00;;;;;;;13.90;11.20;;;28.20;63.50;;;;;;6174895;28;83123;-65
2021/07/17 12:30:00;;;;;;;13.85;10.55;;;28.20;63.60;;;;;;6169009;28;83133;-65
2021/07/17 12:33:01;;;;;;;14.55;11.05;;;28.20;64.30;;;;;;6176881;28;83476;-66
2021/07/17 12:36:01;;;;;;;17.98;10.95;;;28.20;63.70;;;;;;6177190;28;83113;-66
2021/07/17 12:39:02;;;;;;;17.73;11.55;;;28.20;63.80;;;;;;6171608;28;83127;-67
2021/07/17 12:42:03;;;;;;;16.20;11.10;;;28.20;64.20;;;;;;6177540;28;84204;-66
2021/07/17 12:45:03;;;;;;;14.32;10.60;;;28.20;64.90;;;;;;6174283;28;83489;-66
2021/07/17 12:48:04;;;;;;;15.77;10.93;;;28.30;64.30;;;;;;6169468;28;83388;-66
2021/07/17 12:51:04;;;;;;;16.60;12.05;;;28.20;64.10;;;;;;6164214;28;83561;-65
2021/07/17 12:54:05;;;;;;;18.83;10.85;;;28.20;64.20;;;;;;6169853;28;83787;-67
2021/07/17 12:57:05;;;;;;;13.43;11.10;;;28.20;64.70;;;;;;6168937;28;83346;-67
2021/07/17 13:00:06;;;;;;;17.83;11.23;;;28.30;65.20;;;;;;6179395;28;83120;-67
2021/07/17 13:03:06;;;;;;;20.17;11.18;;;28.30;64.90;;;;;;6175154;28;83771;-67
2021/07/17 13:06:07;;;;;;;20.30;11.93;;;28.30;65.00;;;;;;6174752;28;83627;-68
2021/07/17 13:09:07;;;;;;;16.88;11.20;;;28.40;65.10;;;;;;6177597;28;83611;-67
2021/07/17 13:12:08;;;;;;;12.27;10.27;;;28.40;65.20;;;;;;6166741;28;83112;-66
2021/07/17 13:15:11;;;;;;;17.85;11.98;;;28.30;65.10;;;;;;6179203;28;83162;-67
2021/07/17 13:18:11;;;;;;;13.88;11.27;;;28.30;65.20;;;;;;6175673;28;83167;-67
2021/07/17 13:21:12;;;;;;;18.15;11.45;;;28.40;65.20;;;;;;6180429;28;86466;-68
2021/07/17 13:24:12;;;;;;;15.02;11.68;;;28.40;65.60;;;;;;6173114;28;82934;-67
2021/07/17 13:27:13;;;;;;;15.27;11.65;;;28.40;65.70;;;;;;6162593;28;83609;-68
2021/07/17 13:30:13;;;;;;;13.05;11.05;;;28.40;65.90;;;;;;6177966;28;83201;-67
2021/07/17 13:33:14;;;;;;;19.00;11.77;;;28.40;65.70;;;;;;6177849;28;82696;-66
2021/07/17 13:36:14;;;;;;;15.07;11.80;;;28.40;65.60;;;;;;6173408;28;83589;-67
2021/07/17 13:39:15;;;;;;;17.90;11.27;;;28.40;65.50;;;;;;6180186;28;84219;-67
2021/07/17 13:42:15;;;;;;;16.10;11.50;;;28.40;65.70;;;;;;6177729;28;83543;-67
2021/07/17 13:45:16;;;;;;;17.25;11.02;;;28.40;65.80;;;;;;6177755;28;83023;-67
2021/07/17 13:48:16;;;;;;;17.45;11.48;;;28.40;66.10;;;;;;6175663;28;83326;-67
2021/07/17 13:51:17;;;;;;;18.80;14.38;;;28.40;66.50;;;;;;6173822;28;83866;-68
2021/07/17 13:54:17;;;;;;;16.20;13.55;;;28.40;66.30;;;;;;6167612;28;83228;-68
2021/07/17 13:57:18;;;;;;;21.70;16.42;;;28.40;66.30;;;;;;6170450;28;85683;-68
2021/07/17 14:00:18;;;;;;;23.88;16.55;;;28.40;66.10;;;;;;6170029;28;82879;-68
2021/07/17 14:03:19;;;;;;;22.58;18.20;;;28.40;65.90;;;;;;6174528;28;83567;-68
2021/07/17 14:06:21;;;;;;;23.80;18.77;;;28.40;65.60;;;;;;6173018;28;83218;-68
2021/07/17 14:09:21;;;;;;;26.00;19.90;;;28.40;65.50;;;;;;6175924;28;83122;-68
2021/07/17 14:12:25;;;;;;;22.58;17.13;;;28.40;65.30;;;;;;6173184;28;83222;-68
2021/07/17 14:15:26;;;;;;;26.55;18.55;;;28.40;65.00;;;;;;6170705;28;84550;-67
2021/07/17 14:18:27;;;;;;;21.17;16.90;;;28.40;65.30;;;;;;6174381;28;83301;-67
2021/07/17 14:21:27;;;;;;;24.13;17.17;;;28.40;65.50;;;;;;6177886;28;83086;-68
2021/07/17 14:24:28;;;;;;;21.27;16.38;;;28.40;65.20;;;;;;6176522;28;84512;-67
2021/07/17 14:27:29;;;;;;;23.35;15.73;;;28.40;65.30;;;;;;6176865;28;83630;-67
2021/07/17 14:30:29;;;;;;;20.75;15.10;;;28.40;64.90;;;;;;6177845;28;83548;-68
2021/07/17 14:33:30;;;;;;;17.70;14.27;;;28.40;64.80;;;;;;6167860;28;83138;-68
2021/07/17 14:36:30;;;;;;;19.88;14.68;;;28.40;64.70;;;;;;6169139;28;83418;-68
2021/07/17 14:39:31;;;;;;;20.23;13.93;;;28.40;64.60;;;;;;6178287;28;82840;-67
2021/07/17 14:42:31;;;;;;;17.90;14.63;;;28.40;64.70;;;;;;6194862;28;86405;-68
2021/07/17 14:45:32;;;;;;;18.08;13.50;;;28.40;64.70;;;;;;6178865;28;82942;-68
2021/07/17 14:48:32;;;;;;;19.05;13.68;;;28.40;64.70;;;;;;6178615;28;83024;-66
2021/07/17 14:51:33;;;;;;;16.95;13.30;;;28.40;65.30;;;;;;6167939;28;84340;-67
2021/07/17 14:54:33;;;;;;;21.45;13.20;;;28.40;64.60;;;;;;6170545;28;83214;-67
2021/07/17 14:57:34;;;;;;;17.52;13.75;;;28.40;64.60;;;;;;6171998;28;83052;-70
2021/07/17 15:00:34;;;;;;;21.50;12.40;;;28.40;64.40;;;;;;6170037;28;85758;-69
2021/07/17 15:03:35;;;;;;;17.40;13.30;;;28.50;64.40;;;;;;6173084;28;83345;-67
2021/07/17 15:06:35;;;;;;;23.35;13.00;;;28.40;64.20;;;;;;6169417;28;83384;-68
2021/07/17 15:09:36;;;;;;;20.52;12.60;;;28.50;63.90;;;;;;6169364;28;83350;-67
2021/07/17 15:12:36;;;;;;;19.90;12.82;;;28.40;63.40;;;;;;6176434;28;83503;-67
2021/07/17 15:15:37;;;;;;;17.40;11.90;;;28.40;63.50;;;;;;6167774;28;83370;-66
2021/07/17 15:18:37;;;;;;;19.17;12.90;;;28.40;63.60;;;;;;6171995;28;82855;-67